createdAt,value
2022-08-14T00:00:14.654Z,100157.40
2022-08-14T00:03:04.284Z,100157.48
2022-08-14T00:05:35.743Z,100156.11
2022-08-14T00:08:05.548Z,100157.13
2022-08-14T00:10:51.586Z,100154.05
2022-08-14T00:13:29.212Z,100146.73
2022-08-14T00:16:02.216Z,100144.49
2022-08-14T00:19:06.456Z,100141.64
2022-08-14T00:21:28.397Z,100135.67
2022-08-14T00:24:02.530Z,100133.67
2022-08-14T00:26:33.069Z,100132.96
2022-08-14T00:29:04.558Z,100129.48
2022-08-14T00:31:44.434Z,100126.59
2022-08-14T00:34:36.141Z,100128.52
2022-08-14T00:37:08.095Z,100122.14
2022-08-14T00:39:42.592Z,100123.42
2022-08-14T00:42:52.357Z,100122.52
2022-08-14T00:45:04.130Z,100121.89
2022-08-14T00:47:43.022Z,100114.91
2022-08-14T00:50:21.939Z,100112.40
2022-08-14T00:52:53.411Z,100112.27
2022-08-14T00:55:24.363Z,100112.36
2022-08-14T00:58:13.362Z,100111.13
2022-08-14T01:00:51.110Z,100110.02
2022-08-14T01:03:23.400Z,100106.63
2022-08-14T01:05:56.425Z,100104.64
2022-08-14T01:08:51.979Z,100104.59
2022-08-14T01:11:24.318Z,100100.88
2022-08-14T01:14:01.439Z,100101.21
2022-08-14T01:16:34.991Z,100100.20
2022-08-14T01:19:27.476Z,100097.95
2022-08-14T01:21:57.851Z,100102.72
2022-08-14T01:24:36.063Z,100097.84
2022-08-14T01:27:07.061Z,100094.63
2022-08-14T01:29:58.698Z,100096.95
2022-08-14T01:32:37.620Z,100093.11
2022-08-14T01:36:02.683Z,100093.45
2022-08-14T01:38:06.018Z,100098.02
2022-08-14T01:40:41.877Z,100098.02
2022-08-14T01:43:18.565Z,100092.91
2022-08-14T01:45:57.443Z,100098.23
2022-08-14T01:48:44.777Z,100093.37
2022-08-14T01:51:19.191Z,100098.41
2022-08-14T01:54:01.603Z,100094.52
2022-08-14T01:56:41.552Z,100099.38
2022-08-14T01:59:21.918Z,100094.67
2022-08-14T02:01:58.839Z,100096.15
2022-08-14T02:04:54.840Z,100098.94
2022-08-14T02:07:44.519Z,100098.84
2022-08-14T02:10:26.269Z,100096.96
2022-08-14T02:13:08.488Z,100091.02
2022-08-14T02:15:41.454Z,100095.27
2022-08-14T02:18:15.163Z,100095.94
2022-08-14T02:20:51.264Z,100095.34
2022-08-14T02:23:29.024Z,100094.55
2022-08-14T02:26:24.847Z,100086.98
2022-08-14T02:29:00.536Z,100087.86
2022-08-14T02:31:42.149Z,100083.52
2022-08-14T02:34:21.935Z,100084.94
2022-08-14T02:37:03.638Z,100087.04
2022-08-14T02:39:45.221Z,100083.79
2022-08-14T02:42:23.631Z,100093.36
2022-08-14T02:45:10.627Z,100091.61
2022-08-14T02:47:47.488Z,100091.27
2022-08-14T02:50:22.005Z,100088.77
2022-08-14T02:53:03.324Z,100087.98
2022-08-14T02:55:33.970Z,100082.13
2022-08-14T02:58:06.157Z,100077.54
2022-08-14T03:00:39.904Z,100081.69
2022-08-14T03:03:12.206Z,100081.09
2022-08-14T03:05:47.661Z,100080.87
2022-08-14T03:08:21.520Z,100077.20
2022-08-14T03:10:52.111Z,100077.59
2022-08-14T03:13:24.703Z,100072.33
2022-08-14T03:15:58.223Z,100071.50
2022-08-14T03:18:32.814Z,100068.52
2022-08-14T03:21:13.676Z,100069.16
2022-08-14T03:23:45.781Z,100063.42
2022-08-14T03:26:29.933Z,100059.36
2022-08-14T03:29:01.565Z,100059.42
2022-08-14T03:31:32.874Z,100055.40
2022-08-14T03:34:05.255Z,100051.13
2022-08-14T03:37:39.004Z,100047.91
2022-08-14T03:39:31.906Z,100046.10
2022-08-14T03:42:02.334Z,100043.58
2022-08-14T03:45:19.644Z,100044.65
2022-08-14T03:47:46.023Z,100047.29
2022-08-14T03:50:27.560Z,100046.36
2022-08-14T03:53:05.865Z,100041.86
2022-08-14T03:55:38.793Z,100045.21
2022-08-14T03:58:08.616Z,100047.40
2022-08-14T04:00:42.997Z,100047.80
2022-08-14T04:03:23.549Z,100051.77
2022-08-14T04:05:57.429Z,100047.70
2022-08-14T04:08:31.674Z,100057.79
2022-08-14T04:11:07.834Z,100058.42
2022-08-14T04:13:42.239Z,100052.85
2022-08-14T04:16:19.162Z,100052.81
2022-08-14T04:18:53.158Z,100049.31
2022-08-14T04:21:26.191Z,100051.36
2022-08-14T04:24:01.683Z,100049.23
2022-08-14T04:26:42.303Z,100050.41
2022-08-14T04:29:16.242Z,100044.79
2022-08-14T04:32:57.772Z,100040.85
2022-08-14T04:34:42.281Z,100044.81
2022-08-14T04:37:40.257Z,100038.00
2022-08-14T04:40:29.402Z,100039.52
2022-08-14T04:43:17.666Z,100038.81
2022-08-14T04:45:51.464Z,100035.08
2022-08-14T04:48:38.854Z,100033.11
2022-08-14T04:51:13.562Z,100027.83
2022-08-14T04:53:46.812Z,100027.02
2022-08-14T04:56:31.087Z,100026.98
2022-08-14T04:59:10.679Z,100027.92
2022-08-14T05:01:45.318Z,100027.73
2022-08-14T05:04:20.914Z,100028.29
2022-08-14T05:06:53.319Z,100029.95
2022-08-14T05:09:29.214Z,100031.44
2022-08-14T05:13:11.765Z,100029.02
2022-08-14T05:14:55.786Z,100020.73
2022-08-14T05:17:32.024Z,100024.75
2022-08-14T05:21:54.402Z,100021.90
2022-08-14T05:23:11.130Z,100021.80
2022-08-14T05:25:41.700Z,100017.25
2022-08-14T05:28:25.688Z,100011.41
2022-08-14T05:31:08.241Z,100011.61
2022-08-14T05:33:42.872Z,100013.64
2022-08-14T05:36:27.161Z,100013.66
2022-08-14T05:38:58.832Z,100010.42
2022-08-14T05:41:52.441Z,100012.02
2022-08-14T05:44:18.798Z,100013.44
2022-08-14T05:46:49.613Z,100016.65
2022-08-14T05:49:20.046Z,100009.75
2022-08-14T05:51:52.009Z,100007.55
2022-08-14T05:54:27.202Z,100008.26
2022-08-14T05:56:58.513Z,100011.20
2022-08-14T05:59:36.676Z,100008.06
2022-08-14T06:02:11.789Z,100006.98
2022-08-14T06:04:49.529Z,100005.17
2022-08-14T06:07:18.730Z,100005.45
2022-08-14T06:09:51.094Z,100005.86
2022-08-14T06:12:31.590Z,100009.02
2022-08-14T06:15:14.130Z,100005.31
2022-08-14T06:17:46.115Z,99997.42
2022-08-14T06:20:22.087Z,100001.02
2022-08-14T06:22:53.001Z,99998.88
2022-08-14T06:25:24.897Z,99994.95
2022-08-14T06:27:55.690Z,99992.86
2022-08-14T06:30:46.416Z,99990.23
2022-08-14T06:33:18.780Z,99992.10
2022-08-14T06:35:50.970Z,99995.33
2022-08-14T06:38:24.010Z,99998.18
2022-08-14T06:40:57.050Z,99998.25
2022-08-14T06:43:31.864Z,100002.53
2022-08-14T06:46:03.331Z,100001.35
2022-08-14T06:48:37.157Z,100013.65
2022-08-14T06:51:12.027Z,100004.70
2022-08-14T06:53:41.341Z,99997.72
2022-08-14T06:56:11.907Z,99996.30
2022-08-14T06:58:42.887Z,99998.94
2022-08-14T07:01:31.547Z,99994.59
2022-08-14T07:04:23.721Z,99991.04
2022-08-14T07:06:59.089Z,99995.17
2022-08-14T07:09:44.372Z,99992.01
2022-08-14T07:12:35.052Z,99991.59
2022-08-14T07:15:11.701Z,99997.86
2022-08-14T07:17:54.097Z,99994.48
2022-08-14T07:20:31.341Z,99988.55
2022-08-14T07:23:08.115Z,99985.00
2022-08-14T07:25:42.262Z,99983.73
2022-08-14T07:28:22.164Z,99981.54
2022-08-14T07:31:05.232Z,99983.12
2022-08-14T07:33:45.499Z,99977.42
2022-08-14T07:36:27.545Z,99977.17
2022-08-14T07:39:03.000Z,99972.80
2022-08-14T07:41:42.658Z,99964.39
2022-08-14T07:44:28.850Z,99960.40
2022-08-14T07:47:05.202Z,99953.05
2022-08-14T07:49:43.527Z,99945.34
2022-08-14T07:52:14.167Z,99945.09
2022-08-14T07:54:53.795Z,99944.51
2022-08-14T07:57:25.162Z,99947.16
2022-08-14T07:59:55.783Z,99947.94
2022-08-14T08:02:29.549Z,99946.14
2022-08-14T08:05:03.558Z,99949.65
2022-08-14T08:07:40.811Z,99951.73
2022-08-14T08:11:02.102Z,99950.84
2022-08-14T08:13:29.346Z,99947.21
2022-08-14T08:15:59.173Z,99944.73
2022-08-14T08:18:38.214Z,99943.70
2022-08-14T08:21:15.853Z,99943.23
2022-08-14T08:23:55.239Z,99941.48
2022-08-14T08:26:43.579Z,99935.04
2022-08-14T08:29:30.204Z,99935.83
2022-08-14T08:32:14.709Z,99930.05
2022-08-14T08:34:51.942Z,99925.73
2022-08-14T08:37:25.356Z,99935.08
2022-08-14T08:40:06.509Z,99929.36
2022-08-14T08:42:53.136Z,99921.94
2022-08-14T08:45:27.775Z,99926.23
2022-08-14T08:48:03.602Z,99932.95
2022-08-14T08:50:53.282Z,99932.90
2022-08-14T08:53:47.045Z,99928.58
2022-08-14T08:57:21.630Z,99928.17
2022-08-14T09:00:34.943Z,99918.36
2022-08-14T09:03:27.594Z,99928.59
2022-08-14T09:07:00.140Z,99916.98
2022-08-14T09:10:34.055Z,99910.26
2022-08-14T09:13:16.398Z,99910.88
2022-08-14T09:16:18.424Z,99906.48
2022-08-14T09:19:04.515Z,99905.55
2022-08-14T09:21:46.798Z,99904.48
2022-08-14T09:24:26.913Z,99897.60
2022-08-14T09:27:41.374Z,99895.86
2022-08-14T09:30:33.541Z,99891.17
2022-08-14T09:33:25.472Z,99888.41
2022-08-14T09:36:39.786Z,99887.95
2022-08-14T09:40:25.814Z,99874.52
2022-08-14T09:43:13.831Z,99876.40
2022-08-14T09:46:04.329Z,99870.84
2022-08-14T09:48:39.427Z,99864.59
2022-08-14T09:51:25.508Z,99862.77
2022-08-14T09:54:22.944Z,99861.02
2022-08-14T09:56:57.420Z,99845.45
2022-08-14T09:59:39.569Z,99850.02
2022-08-14T10:02:31.781Z,99846.21
2022-08-14T10:05:13.589Z,99844.98
2022-08-14T10:07:53.843Z,99843.31
2022-08-14T10:10:38.923Z,99839.56
2022-08-14T10:13:43.230Z,99839.84
2022-08-14T10:16:30.417Z,99840.06
2022-08-14T10:19:28.383Z,99839.21
2022-08-14T10:23:13.030Z,99836.67
2022-08-14T10:24:55.742Z,99829.02
2022-08-14T10:27:29.585Z,99833.91
2022-08-14T10:30:02.455Z,99834.02
2022-08-14T10:32:49.629Z,99830.77
2022-08-14T10:35:27.715Z,99821.71
2022-08-14T10:38:02.346Z,99819.41
2022-08-14T10:40:44.742Z,99812.80
2022-08-14T10:43:31.944Z,99805.90
2022-08-14T10:47:38.041Z,99808.98
2022-08-14T10:49:04.912Z,99816.56
2022-08-14T10:51:39.722Z,99813.67
2022-08-14T10:54:17.018Z,99812.33
2022-08-14T10:57:38.471Z,99807.73
2022-08-14T11:00:20.739Z,99813.34
2022-08-14T11:03:19.704Z,99815.14
2022-08-14T11:05:57.187Z,99820.21
2022-08-14T11:08:34.781Z,99818.85
2022-08-14T11:11:07.469Z,99810.40
2022-08-14T11:13:44.524Z,99821.34
2022-08-14T11:16:16.585Z,99811.69
2022-08-14T11:18:55.956Z,99808.09
2022-08-14T11:21:34.294Z,99807.63
2022-08-14T11:24:55.159Z,99803.55
2022-08-14T11:27:04.077Z,99801.36
2022-08-14T11:30:00.380Z,99801.11
2022-08-14T11:32:51.354Z,99794.19
2022-08-14T11:35:37.003Z,99793.27
2022-08-14T11:38:21.825Z,99794.23
2022-08-14T11:40:52.493Z,99794.55
2022-08-14T11:43:29.139Z,99801.17
2022-08-14T11:46:03.650Z,99789.64
2022-08-14T11:49:01.628Z,99789.52
2022-08-14T11:51:52.885Z,99789.81
2022-08-14T11:54:34.986Z,99794.90
2022-08-14T11:57:06.413Z,99802.87
2022-08-14T11:59:38.530Z,99796.13
2022-08-14T12:03:01.630Z,99795.60
2022-08-14T12:05:10.891Z,99794.54
2022-08-14T12:07:50.416Z,99787.95
2022-08-14T12:10:41.052Z,99778.95
2022-08-14T12:13:22.587Z,99766.02
2022-08-14T12:16:06.507Z,99774.35
2022-08-14T12:18:45.855Z,99769.49
2022-08-14T12:21:25.581Z,99776.41
2022-08-14T12:24:08.479Z,99772.80
2022-08-14T12:26:40.729Z,99771.66
2022-08-14T12:29:16.726Z,99764.14
2022-08-14T12:31:47.184Z,99764.59
2022-08-14T12:34:20.518Z,99759.59
2022-08-14T12:37:09.311Z,99756.24
2022-08-14T12:39:40.278Z,99752.98
2022-08-14T12:42:34.041Z,99753.88
2022-08-14T12:45:04.905Z,99745.42
2022-08-14T12:47:38.828Z,99740.36
2022-08-14T12:50:21.733Z,99745.36
2022-08-14T12:53:14.683Z,99738.98
2022-08-14T12:56:22.545Z,99740.36
2022-08-14T12:58:59.145Z,99733.65
2022-08-14T13:01:59.324Z,99727.79
2022-08-14T13:04:52.339Z,99726.09
2022-08-14T13:07:26.829Z,99726.84
2022-08-14T13:10:46.272Z,99726.95
2022-08-14T13:13:15.673Z,99729.05
2022-08-14T13:15:57.286Z,99715.05
2022-08-14T13:18:31.337Z,99714.91
2022-08-14T13:21:03.020Z,99704.49
2022-08-14T13:23:37.370Z,99700.14
2022-08-14T13:26:09.310Z,99694.85
2022-08-14T13:29:02.072Z,99691.12
2022-08-14T13:31:36.446Z,99689.02
2022-08-14T13:34:06.662Z,99690.80
2022-08-14T13:36:51.557Z,99685.29
2022-08-14T13:39:30.246Z,99682.31
2022-08-14T13:42:13.864Z,99684.64
2022-08-14T13:44:45.611Z,99696.27
2022-08-14T13:47:21.017Z,99695.77
2022-08-14T13:49:57.539Z,99697.41
2022-08-14T13:52:51.423Z,99693.53
2022-08-14T13:55:31.566Z,99697.98
2022-08-14T13:58:07.819Z,99695.70
2022-08-14T14:00:59.942Z,99693.39
2022-08-14T14:03:31.949Z,99695.48
2022-08-14T14:06:03.878Z,99697.17
2022-08-14T14:08:47.742Z,99696.00
2022-08-14T14:11:25.282Z,99701.05
2022-08-14T14:14:06.102Z,99690.88
2022-08-14T14:16:47.514Z,99688.36
2022-08-14T14:19:20.922Z,99686.48
2022-08-14T14:21:55.797Z,99686.27
2022-08-14T14:24:26.325Z,99675.48
2022-08-14T14:27:30.080Z,99664.73
2022-08-14T14:29:59.569Z,99666.30
2022-08-14T14:32:32.334Z,99658.98
2022-08-14T14:35:03.993Z,99659.83
2022-08-14T14:37:37.902Z,99671.16
2022-08-14T14:40:54.371Z,99680.41
2022-08-14T14:43:11.867Z,99688.88
2022-08-14T14:45:46.814Z,99698.29
2022-08-14T14:48:28.406Z,99717.72
2022-08-14T14:51:01.742Z,99733.35
2022-08-14T14:53:39.225Z,99751.88
2022-08-14T14:56:49.303Z,99770.99
2022-08-14T14:59:01.562Z,99762.05
2022-08-14T15:01:33.145Z,99758.69
2022-08-14T15:04:08.071Z,99739.31
2022-08-14T15:06:53.030Z,99735.02
2022-08-14T15:09:23.856Z,99721.35
2022-08-14T15:11:53.177Z,99705.25
2022-08-14T15:14:54.677Z,99700.84
2022-08-14T15:17:12.351Z,99701.27
2022-08-14T15:19:42.576Z,99707.55
2022-08-14T15:22:29.702Z,99714.56
2022-08-14T15:25:01.134Z,99701.70
2022-08-14T15:27:33.384Z,99705.59
2022-08-14T15:30:06.894Z,99697.31
2022-08-14T15:32:37.224Z,99700.33
2022-08-14T15:35:08.512Z,99706.83
2022-08-14T15:37:42.248Z,99724.11
2022-08-14T15:40:16.215Z,99729.44
2022-08-14T15:42:53.174Z,99734.93
2022-08-14T15:45:24.312Z,99736.95
2022-08-14T15:47:53.324Z,99739.04
2022-08-14T15:50:29.555Z,99750.05
2022-08-14T15:53:00.030Z,99752.48
2022-08-14T15:55:31.364Z,99765.21
2022-08-14T15:58:05.829Z,99760.46
2022-08-14T16:00:55.984Z,99766.44
2022-08-14T16:03:35.163Z,99774.11
2022-08-14T16:06:15.591Z,99770.96
2022-08-14T16:08:58.798Z,99771.98
2022-08-14T16:11:32.693Z,99766.70
2022-08-14T16:14:06.666Z,99754.45
2022-08-14T16:16:51.431Z,99746.05
2022-08-14T16:19:28.068Z,99735.67
2022-08-14T16:22:57.367Z,99742.03
2022-08-14T16:25:00.562Z,99738.39
2022-08-14T16:27:40.991Z,99735.69
2022-08-14T16:30:20.664Z,99732.91
2022-08-14T16:32:59.344Z,99724.20
2022-08-14T16:35:59.390Z,99719.02
2022-08-14T16:38:46.387Z,99709.84
2022-08-14T16:41:23.857Z,99720.59
2022-08-14T16:44:02.365Z,99710.66
2022-08-14T16:46:43.014Z,99706.38
2022-08-14T16:49:18.794Z,99715.48
2022-08-14T16:51:52.977Z,99715.98
2022-08-14T16:54:35.085Z,99709.20
2022-08-14T16:57:27.623Z,99701.67
2022-08-14T17:00:07.241Z,99703.36
2022-08-14T17:03:00.815Z,99698.64
2022-08-14T17:05:43.299Z,99690.67
2022-08-14T17:08:32.131Z,99690.35
2022-08-14T17:11:10.760Z,99697.38
2022-08-14T17:13:59.065Z,99720.79
2022-08-14T17:16:38.764Z,99726.08
2022-08-14T17:19:16.724Z,99729.90
2022-08-14T17:21:51.454Z,99720.59
2022-08-14T17:24:56.698Z,99715.70
2022-08-14T17:27:18.172Z,99706.15
2022-08-14T17:29:57.585Z,99695.59
2022-08-14T17:32:55.485Z,99691.61
2022-08-14T17:35:57.662Z,99679.92
2022-08-14T17:38:39.535Z,99679.42
2022-08-14T17:41:32.947Z,99680.14
2022-08-14T17:44:33.851Z,99685.30
2022-08-14T17:47:11.569Z,99684.48
2022-08-14T17:49:51.792Z,99686.44
2022-08-14T17:52:33.960Z,99686.02
2022-08-14T17:55:12.751Z,99690.91
2022-08-14T17:58:16.561Z,99695.80
2022-08-14T18:01:04.692Z,99701.38
2022-08-14T18:03:50.337Z,99706.70
2022-08-14T18:06:39.431Z,99702.94
2022-08-14T18:09:25.936Z,99708.16
2022-08-14T18:12:03.882Z,99707.80
2022-08-14T18:14:48.746Z,99714.26
2022-08-14T18:17:23.047Z,99722.13
2022-08-14T18:19:56.502Z,99722.12
2022-08-14T18:22:32.110Z,99726.27
2022-08-14T18:25:04.729Z,99730.27
2022-08-14T18:27:51.600Z,99725.54
2022-08-14T18:30:33.553Z,99729.24
2022-08-14T18:33:22.882Z,99729.61
2022-08-14T18:35:58.498Z,99730.52
2022-08-14T18:38:46.215Z,99724.54
2022-08-14T18:41:37.033Z,99729.41
2022-08-14T18:44:10.634Z,99727.99
2022-08-14T18:47:10.241Z,99730.31
2022-08-14T18:49:55.659Z,99731.17
2022-08-14T18:52:37.662Z,99730.45
2022-08-14T18:55:20.953Z,99725.29
2022-08-14T18:58:30.437Z,99726.48
2022-08-14T19:01:06.217Z,99719.59
2022-08-14T19:03:37.253Z,99729.92
2022-08-14T19:06:10.753Z,99729.47
2022-08-14T19:08:51.634Z,99729.40
2022-08-14T19:11:33.237Z,99732.52
2022-08-14T19:14:06.753Z,99729.92
2022-08-14T19:16:42.787Z,99727.61
2022-08-14T19:19:15.352Z,99725.11
2022-08-14T19:22:00.009Z,99730.14
2022-08-14T19:24:56.975Z,99732.64
2022-08-14T19:27:37.720Z,99740.57
2022-08-14T19:30:19.728Z,99739.06
2022-08-14T19:32:57.046Z,99740.04
2022-08-14T19:36:29.192Z,99736.42
2022-08-14T19:39:04.331Z,99726.77
2022-08-14T19:41:36.966Z,99721.23
2022-08-14T19:44:12.582Z,99716.59
2022-08-14T19:47:02.841Z,99713.41
2022-08-14T19:50:24.593Z,99715.05
2022-08-14T19:52:37.240Z,99715.75
2022-08-14T19:55:17.581Z,99716.28
2022-08-14T19:57:57.968Z,99715.66
2022-08-14T20:00:31.079Z,99711.48
2022-08-14T20:03:11.751Z,99710.88
2022-08-14T20:05:45.891Z,99710.68
2022-08-14T20:09:05.019Z,99708.95
2022-08-14T20:12:00.406Z,99712.83
2022-08-14T20:14:29.358Z,99710.98
2022-08-14T20:17:05.979Z,99713.89
2022-08-14T20:19:41.883Z,99710.73
2022-08-14T20:22:35.049Z,99712.97
2022-08-14T20:25:19.094Z,99715.33
2022-08-14T20:27:59.671Z,99716.88
2022-08-14T20:30:33.402Z,99711.21
2022-08-14T20:33:10.592Z,99710.96
2022-08-14T20:35:46.954Z,99706.52
2022-08-14T20:38:30.759Z,99703.79
2022-08-14T20:41:07.585Z,99713.94
2022-08-14T20:44:00.936Z,99722.90
2022-08-14T20:46:38.450Z,99724.98
2022-08-14T20:49:20.246Z,99730.67
2022-08-14T20:52:05.087Z,99724.60
2022-08-14T20:54:53.357Z,99715.73
2022-08-14T20:57:44.104Z,99720.45
2022-08-14T21:00:56.486Z,99718.45
2022-08-14T21:03:56.445Z,99716.14
2022-08-14T21:07:23.361Z,99711.95
2022-08-14T21:10:05.327Z,99713.73
2022-08-14T21:12:35.272Z,99719.58
2022-08-14T21:15:11.331Z,99717.77
2022-08-14T21:17:46.326Z,99722.73
2022-08-14T21:20:26.127Z,99721.14
2022-08-14T21:23:00.516Z,99716.46
2022-08-14T21:25:32.256Z,99718.09
2022-08-14T21:28:09.056Z,99724.69
2022-08-14T21:31:35.662Z,99721.09
2022-08-14T21:34:31.553Z,99721.83
2022-08-14T21:36:57.638Z,99709.33
2022-08-14T21:39:32.159Z,99715.02
2022-08-14T21:42:04.644Z,99716.92
2022-08-14T21:44:42.601Z,99722.52
2022-08-14T21:47:15.984Z,99715.48
2022-08-14T21:49:48.363Z,99706.99
2022-08-14T21:52:52.167Z,99706.46
2022-08-14T21:55:23.272Z,99700.91
2022-08-14T21:58:38.372Z,99696.16
2022-08-14T22:00:46.887Z,99694.34
2022-08-14T22:03:24.495Z,99694.26
2022-08-14T22:05:57.228Z,99695.45
2022-08-14T22:08:29.342Z,99698.64
2022-08-14T22:11:00.861Z,99704.86
2022-08-14T22:13:33.518Z,99704.88
2022-08-14T22:17:01.755Z,99699.02
2022-08-14T22:19:13.397Z,99702.40
2022-08-14T22:21:46.621Z,99696.15
2022-08-14T22:24:25.937Z,99689.29
2022-08-14T22:27:08.584Z,99689.08
2022-08-14T22:29:38.898Z,99688.40
2022-08-14T22:32:11.268Z,99689.52
2022-08-14T22:34:44.695Z,99688.80
2022-08-14T22:37:17.777Z,99683.44
2022-08-14T22:40:45.803Z,99680.08
2022-08-14T22:42:39.244Z,99679.19
2022-08-14T22:45:36.649Z,99675.80
2022-08-14T22:48:12.867Z,99669.88
2022-08-14T22:50:48.806Z,99662.98
2022-08-14T22:53:18.984Z,99656.98
2022-08-14T22:55:52.048Z,99659.36
2022-08-14T22:58:31.716Z,99655.88
2022-08-14T23:01:11.838Z,99649.82
2022-08-14T23:03:45.571Z,99649.48
2022-08-14T23:07:04.121Z,99646.21
2022-08-14T23:09:36.285Z,99646.84
2022-08-14T23:12:27.459Z,99649.33
2022-08-14T23:15:04.651Z,99651.11
2022-08-14T23:17:40.798Z,99650.05
2022-08-14T23:20:18.727Z,99655.70
2022-08-14T23:22:54.328Z,99658.21
2022-08-14T23:25:58.032Z,99663.56
2022-08-14T23:28:32.911Z,99666.19
2022-08-14T23:31:15.098Z,99666.08
2022-08-14T23:34:11.619Z,99666.95
2022-08-14T23:36:53.053Z,99668.79
2022-08-14T23:39:32.804Z,99669.70
2022-08-14T23:42:08.747Z,99665.42
2022-08-14T23:44:40.814Z,99666.86
2022-08-14T23:47:26.741Z,99665.38
2022-08-14T23:50:34.349Z,99672.36
2022-08-14T23:53:07.232Z,99666.27
2022-08-14T23:55:42.014Z,99661.13
2022-08-14T23:58:29.148Z,99660.56
